Time;durP1;ratioP1;P1;durP2;ratioP2;P2;SDS_P1;SDS_P2;PMS_P1;PMS_P2;Temp;Humidity;BMP_temperature;BMP_pressure;BME280_temperature;BME280_humidity;BME280_pressure;Samples;Min_cycle;Max_cycle;Signal;HPM_P1;HPM_P2
2021/12/12 00:00:27;;;;;;;100.25;47.50;;;2.60;99.90;;;;;;5066335;28;20397;-81
2021/12/12 00:02:58;;;;;;;112.38;47.65;;;2.70;99.90;;;;;;5057744;28;20412;-81
2021/12/12 00:05:25;;;;;;;92.50;47.70;;;2.70;99.90;;;;;;5070601;28;20537;-81
2021/12/12 00:07:52;;;;;;;97.50;47.58;;;2.70;99.90;;;;;;5065869;28;20040;-80
2021/12/12 00:10:19;;;;;;;125.63;52.13;;;2.70;99.90;;;;;;5069608;28;20056;-81
2021/12/12 00:12:45;;;;;;;109.90;49.65;;;2.70;99.90;;;;;;5056718;28;20044;-80
2021/12/12 00:15:12;;;;;;;103.45;46.45;;;2.70;99.90;;;;;;5062605;28;20045;-80
2021/12/12 00:17:39;;;;;;;89.25;48.60;;;2.70;99.90;;;;;;5059516;28;20105;-81
2021/12/12 00:20:05;;;;;;;93.30;47.85;;;2.80;99.90;;;;;;5059690;28;20052;-80
2021/12/12 00:22:32;;;;;;;107.78;49.33;;;2.80;99.90;;;;;;5066121;28;20048;-81
2021/12/12 00:24:58;;;;;;;105.53;46.85;;;2.80;99.90;;;;;;5067374;28;20071;-80
2021/12/12 00:27:25;;;;;;;100.78;46.67;;;2.80;99.90;;;;;;5065473;28;20048;-81
2021/12/12 00:29:52;;;;;;;86.40;42.88;;;2.80;99.90;;;;;;5067372;28;20056;-80
2021/12/12 00:32:18;;;;;;;86.57;46.85;;;2.80;99.90;;;;;;5062662;28;20045;-81
2021/12/12 00:34:45;;;;;;;89.95;46.60;;;2.80;99.90;;;;;;5060074;28;20057;-81
2021/12/12 00:37:11;;;;;;;95.45;48.53;;;2.90;99.90;;;;;;5065177;28;20059;-81
2021/12/12 00:39:38;;;;;;;86.57;44.95;;;2.90;99.90;;;;;;5056788;28;20086;-81
2021/12/12 00:42:04;;;;;;;79.88;47.33;;;2.90;99.90;;;;;;5056688;28;20057;-81
2021/12/12 00:44:31;;;;;;;98.25;44.72;;;2.90;99.90;;;;;;5062848;28;20040;-81
2021/12/12 00:46:57;;;;;;;80.85;42.75;;;2.90;99.90;;;;;;5067606;28;20060;-80
2021/12/12 00:49:24;;;;;;;89.28;45.25;;;2.90;99.90;;;;;;5058861;28;20053;-80
2021/12/12 00:51:50;;;;;;;97.90;45.30;;;2.90;99.90;;;;;;5057265;28;20040;-81
2021/12/12 00:54:17;;;;;;;86.38;45.88;;;3.00;99.90;;;;;;5059560;28;20075;-81
2021/12/12 00:56:43;;;;;;;78.65;44.63;;;3.00;99.90;;;;;;5067064;28;21208;-81
2021/12/12 00:59:10;;;;;;;79.13;44.05;;;2.90;99.90;;;;;;5063203;28;20041;-80
2021/12/12 01:01:37;;;;;;;91.68;45.75;;;3.00;99.90;;;;;;5066429;28;20079;-81
2021/12/12 01:04:04;;;;;;;82.13;44.28;;;2.90;99.90;;;;;;5060829;28;20049;-80
2021/12/12 01:06:31;;;;;;;90.55;43.17;;;3.00;99.90;;;;;;5061484;28;20053;-81
2021/12/12 01:08:57;;;;;;;88.15;47.85;;;3.00;99.90;;;;;;5066106;28;20075;-81
2021/12/12 01:11:24;;;;;;;86.60;45.95;;;3.00;99.90;;;;;;5069899;28;20040;-81
2021/12/12 01:13:50;;;;;;;92.38;46.08;;;3.00;99.90;;;;;;5058035;28;20045;-80
2021/12/12 01:16:17;;;;;;;89.15;45.00;;;3.00;99.90;;;;;;5064220;28;20040;-81
2021/12/12 01:18:43;;;;;;;92.05;45.13;;;3.00;99.90;;;;;;5059263;28;20049;-81
2021/12/12 01:21:12;;;;;;;90.20;44.38;;;3.00;99.90;;;;;;5061398;28;20048;-81
2021/12/12 01:23:39;;;;;;;87.53;41.95;;;3.00;99.90;;;;;;5059491;28;20095;-81
2021/12/12 01:26:05;;;;;;;90.53;44.60;;;3.00;99.90;;;;;;5068463;28;20052;-80
2021/12/12 01:28:32;;;;;;;81.22;41.97;;;3.00;99.90;;;;;;5060285;28;20053;-81
2021/12/12 01:30:58;;;;;;;67.50;40.75;;;3.00;99.90;;;;;;5066925;28;20262;-79
2021/12/12 01:33:33;;;;;;;87.07;43.63;;;3.00;99.90;;;;;;5064410;28;20040;-81
2021/12/12 01:35:59;;;;;;;78.60;41.80;;;3.00;99.90;;;;;;5063790;28;20048;-80
2021/12/12 01:41:10;;;;;;;70.53;41.17;;;3.10;99.90;;;;;;5071833;28;20134;-81
2021/12/12 01:43:37;;;;;;;90.57;41.47;;;3.10;99.90;;;;;;5059577;28;20115;-80
2021/12/12 01:46:03;;;;;;;75.95;40.05;;;3.10;99.90;;;;;;5062541;28;20057;-80
2021/12/12 01:48:30;;;;;;;70.82;38.80;;;3.10;99.90;;;;;;5066671;28;20110;-80
2021/12/12 01:50:56;;;;;;;72.40;40.05;;;3.20;99.90;;;;;;5057276;28;20510;-81
2021/12/12 01:53:23;;;;;;;83.45;40.42;;;3.10;99.90;;;;;;5061888;28;20040;-81
2021/12/12 01:55:50;;;;;;;74.32;41.72;;;3.20;99.90;;;;;;5058266;28;20480;-80
2021/12/12 01:58:16;;;;;;;85.65;40.40;;;3.20;99.90;;;;;;5067501;28;20044;-80
2021/12/12 02:00:43;;;;;;;69.13;38.17;;;3.20;99.90;;;;;;5060748;28;20059;-80
2021/12/12 02:03:09;;;;;;;73.15;38.97;;;3.20;99.90;;;;;;5058246;28;20061;-80
2021/12/12 02:05:36;;;;;;;85.85;39.80;;;3.20;99.90;;;;;;5071583;28;20056;-80
2021/12/12 02:08:03;;;;;;;67.07;38.90;;;3.20;99.90;;;;;;5068664;28;20496;-80
2021/12/12 02:10:29;;;;;;;62.00;36.50;;;3.20;99.90;;;;;;5067845;28;20502;-80
2021/12/12 02:12:56;;;;;;;68.55;37.35;;;3.20;99.90;;;;;;5060683;28;20041;-81
2021/12/12 02:15:23;;;;;;;71.68;36.92;;;3.20;99.90;;;;;;5066906;28;20605;-80
2021/12/12 02:17:51;;;;;;;69.93;37.85;;;3.20;99.90;;;;;;5069294;28;20415;-81
2021/12/12 02:20:21;;;;;;;61.55;37.08;;;3.20;99.90;;;;;;5061748;28;20052;-81
2021/12/12 02:22:58;;;;;;;62.38;37.30;;;3.20;99.90;;;;;;5068331;28;20056;-81
2021/12/12 02:36:24;;;;;;;64.22;37.85;;;3.30;99.90;;;;;;5074458;28;20373;-81
2021/12/12 02:38:51;;;;;;;64.07;35.78;;;3.30;99.90;;;;;;5065324;28;20049;-81
2021/12/12 02:41:17;;;;;;;64.75;36.35;;;3.30;99.90;;;;;;5068432;28;20044;-81
2021/12/12 02:43:44;;;;;;;69.10;36.42;;;3.30;99.90;;;;;;5065262;28;20060;-82
2021/12/12 02:46:13;;;;;;;57.97;32.20;;;3.30;99.90;;;;;;5064876;28;20052;-81
2021/12/12 02:48:40;;;;;;;75.32;35.90;;;3.40;99.90;;;;;;5065322;28;20056;-82
2021/12/12 02:51:06;;;;;;;61.08;33.60;;;3.40;99.90;;;;;;5062922;28;20389;-80
2021/12/12 02:53:33;;;;;;;66.97;34.08;;;3.40;99.90;;;;;;5068188;28;20045;-82
2021/12/12 02:55:59;;;;;;;58.22;32.13;;;3.40;99.90;;;;;;5068093;28;20071;-82
2021/12/12 02:58:26;;;;;;;55.35;30.85;;;3.40;99.90;;;;;;5068206;28;20051;-82
2021/12/12 03:00:52;;;;;;;55.20;32.97;;;3.40;99.90;;;;;;5057052;28;20048;-81
2021/12/12 03:03:19;;;;;;;56.33;31.52;;;3.40;99.90;;;;;;5061861;28;20053;-81
2021/12/12 03:05:46;;;;;;;56.13;31.65;;;3.40;99.90;;;;;;5065934;28;20377;-80
2021/12/12 03:08:12;;;;;;;50.20;31.35;;;3.40;99.90;;;;;;5052908;28;20073;-81
2021/12/12 03:10:39;;;;;;;68.68;31.30;;;3.50;99.90;;;;;;5069556;28;20053;-82
2021/12/12 03:13:05;;;;;;;60.10;32.35;;;3.50;99.90;;;;;;5070280;28;20055;-81
2021/12/12 03:15:34;;;;;;;55.65;31.10;;;3.50;99.90;;;;;;5071465;28;20132;-82
2021/12/12 03:18:00;;;;;;;55.25;30.08;;;3.50;99.90;;;;;;5067976;28;20066;-81
2021/12/12 03:20:27;;;;;;;57.25;30.65;;;3.50;99.90;;;;;;5067220;28;20087;-81
2021/12/12 03:22:54;;;;;;;61.78;31.95;;;3.60;99.90;;;;;;5055800;28;20085;-81
2021/12/12 03:25:20;;;;;;;57.35;29.75;;;3.60;99.90;;;;;;5055485;28;20052;-81
2021/12/12 03:27:47;;;;;;;57.97;30.38;;;3.60;99.90;;;;;;5055303;28;20048;-81
2021/12/12 03:30:13;;;;;;;50.90;28.35;;;3.60;99.90;;;;;;5056388;28;20060;-81
2021/12/12 03:32:40;;;;;;;58.92;28.92;;;3.60;99.90;;;;;;5060504;28;20400;-81
2021/12/12 03:35:06;;;;;;;54.40;29.23;;;3.60;99.90;;;;;;5058355;28;20096;-81
2021/12/12 03:37:33;;;;;;;60.75;30.27;;;3.60;99.90;;;;;;5065848;28;20475;-81
2021/12/12 03:39:59;;;;;;;52.15;27.55;;;3.60;99.90;;;;;;5061712;28;20071;-81
2021/12/12 03:42:26;;;;;;;45.28;27.90;;;3.60;99.90;;;;;;5065952;28;20215;-80
2021/12/12 03:44:52;;;;;;;53.30;28.77;;;3.60;99.90;;;;;;5067287;28;20056;-81
2021/12/12 03:47:19;;;;;;;47.60;27.80;;;3.60;99.90;;;;;;5060245;28;20617;-81
2021/12/12 03:49:45;;;;;;;45.55;27.58;;;3.60;99.90;;;;;;5064526;28;20468;-81
2021/12/12 03:52:12;;;;;;;48.28;28.05;;;3.60;99.90;;;;;;5064418;28;20400;-81
2021/12/12 03:54:39;;;;;;;61.83;27.02;;;3.70;99.90;;;;;;5061635;28;20404;-81
2021/12/12 03:57:05;;;;;;;52.95;27.02;;;3.70;99.90;;;;;;5058779;28;20058;-81
2021/12/12 03:59:32;;;;;;;56.75;28.00;;;3.70;99.90;;;;;;5067283;28;20051;-81
2021/12/12 04:01:58;;;;;;;50.25;27.30;;;3.70;99.90;;;;;;5062577;28;20052;-81
2021/12/12 04:04:25;;;;;;;50.05;27.30;;;3.70;99.90;;;;;;5057902;28;20045;-81
2021/12/12 04:06:51;;;;;;;43.25;24.88;;;3.70;99.90;;;;;;5061721;28;20075;-81
2021/12/12 04:09:18;;;;;;;52.65;26.63;;;3.70;99.90;;;;;;5063357;28;20052;-80
2021/12/12 04:11:44;;;;;;;41.63;24.85;;;3.80;99.90;;;;;;5063658;28;20057;-81
2021/12/12 04:14:11;;;;;;;51.22;25.63;;;3.80;99.90;;;;;;5067353;28;20051;-80
2021/12/12 04:16:38;;;;;;;37.88;23.52;;;3.80;99.90;;;;;;5063700;28;20059;-81
2021/12/12 04:19:04;;;;;;;42.10;26.25;;;3.80;99.90;;;;;;5063230;28;20055;-81
2021/12/12 04:21:31;;;;;;;41.83;24.73;;;3.80;99.90;;;;;;5059123;28;20057;-82
2021/12/12 04:23:57;;;;;;;40.33;22.75;;;3.90;99.90;;;;;;5058135;28;20044;-83
2021/12/12 04:26:24;;;;;;;52.88;24.58;;;3.90;99.90;;;;;;5065970;28;20041;-83
2021/12/12 04:28:50;;;;;;;39.58;22.55;;;3.90;99.90;;;;;;5056348;28;20051;-82
2021/12/12 04:31:17;;;;;;;41.72;23.15;;;3.90;99.90;;;;;;5068278;28;20060;-82
2021/12/12 04:33:43;;;;;;;52.60;24.27;;;3.90;99.90;;;;;;5067998;28;20059;-82
2021/12/12 04:36:10;;;;;;;32.67;21.05;;;4.00;99.90;;;;;;5065064;28;20060;-82
2021/12/12 04:38:37;;;;;;;37.33;23.35;;;4.00;99.90;;;;;;5068138;28;20488;-82
2021/12/12 04:41:03;;;;;;;40.85;23.13;;;4.00;99.90;;;;;;5065377;28;20488;-82
2021/12/12 04:43:30;;;;;;;36.55;21.55;;;4.00;99.90;;;;;;5064668;28;20052;-83
2021/12/12 04:46:03;;;;;;;38.40;22.20;;;4.00;99.90;;;;;;5065147;28;20048;-82
2021/12/12 04:51:14;;;;;;;36.08;21.55;;;4.00;99.90;;;;;;5055074;28;20492;-83
2021/12/12 04:53:41;;;;;;;44.10;21.70;;;4.00;99.90;;;;;;5061445;28;20049;-82
2021/12/12 04:56:07;;;;;;;31.73;21.20;;;4.00;99.90;;;;;;5063492;28;20053;-83
2021/12/12 04:58:34;;;;;;;34.88;22.98;;;4.10;99.90;;;;;;5066191;28;20064;-83
2021/12/12 05:01:00;;;;;;;34.70;21.00;;;4.00;99.90;;;;;;5058987;28;20048;-83
2021/12/12 05:03:27;;;;;;;27.25;18.50;;;4.00;99.90;;;;;;5066308;28;20063;-83
2021/12/12 05:05:54;;;;;;;31.38;19.10;;;4.10;99.90;;;;;;5070097;28;20044;-83
2021/12/12 05:08:20;;;;;;;28.13;19.05;;;4.00;99.90;;;;;;5057971;28;20056;-82
2021/12/12 05:10:47;;;;;;;34.97;19.88;;;4.10;99.90;;;;;;5066474;28;20067;-82
2021/12/12 05:13:13;;;;;;;35.08;20.88;;;4.10;99.90;;;;;;5066838;28;20412;-82
2021/12/12 05:15:40;;;;;;;33.78;19.42;;;4.10;99.90;;;;;;5065608;28;20495;-82
2021/12/12 05:18:06;;;;;;;31.77;19.02;;;4.10;99.90;;;;;;5052266;28;20400;-82
2021/12/12 05:20:33;;;;;;;38.33;18.67;;;4.10;99.90;;;;;;5058351;28;20048;-82
2021/12/12 05:22:59;;;;;;;27.15;17.52;;;4.10;99.90;;;;;;5055249;28;20059;-82
2021/12/12 05:25:26;;;;;;;30.38;17.67;;;4.10;99.90;;;;;;5055495;28;20053;-83
2021/12/12 05:27:52;;;;;;;27.17;18.25;;;4.20;99.90;;;;;;5057999;28;20061;-82
2021/12/12 05:30:19;;;;;;;27.00;16.58;;;4.20;99.90;;;;;;5066649;28;20475;-81
2021/12/12 05:32:45;;;;;;;31.80;16.25;;;4.20;99.90;;;;;;5058726;28;20490;-82
2021/12/12 05:35:12;;;;;;;17.45;13.75;;;4.30;99.90;;;;;;5065691;28;20049;-82
2021/12/12 05:37:38;;;;;;;36.40;18.00;;;4.30;99.90;;;;;;5059528;28;20240;-82
2021/12/12 05:40:05;;;;;;;21.45;15.52;;;4.30;99.90;;;;;;5065330;28;20045;-82
2021/12/12 05:42:32;;;;;;;17.27;13.70;;;4.40;99.90;;;;;;5067818;28;20049;-82
2021/12/12 05:44:58;;;;;;;25.90;14.10;;;4.40;99.90;;;;;;5060765;28;20036;-82
2021/12/12 05:47:25;;;;;;;26.60;14.88;;;4.40;99.90;;;;;;5064365;28;20059;-82
2021/12/12 05:49:51;;;;;;;24.75;14.25;;;4.40;99.90;;;;;;5064797;28;20048;-83
2021/12/12 05:52:18;;;;;;;23.33;13.40;;;4.40;99.90;;;;;;5059700;28;20123;-82
2021/12/12 05:54:44;;;;;;;19.77;15.07;;;4.40;99.90;;;;;;5064510;28;20044;-83
2021/12/12 05:57:11;;;;;;;22.27;11.77;;;4.40;99.90;;;;;;5061925;28;20056;-82
2021/12/12 05:59:38;;;;;;;20.27;12.45;;;4.40;99.90;;;;;;5058904;28;20059;-81
2021/12/12 06:02:06;;;;;;;15.32;11.68;;;4.40;99.90;;;;;;5060577;28;20055;-81
2021/12/12 06:04:32;;;;;;;19.10;11.63;;;4.40;99.90;;;;;;5057295;28;20095;-81
2021/12/12 06:07:02;;;;;;;19.02;12.05;;;4.50;99.90;;;;;;5064694;28;20044;-82
2021/12/12 06:09:28;;;;;;;19.80;10.45;;;4.50;99.90;;;;;;5053319;28;20055;-82
2021/12/12 06:11:55;;;;;;;16.05;11.43;;;4.50;99.90;;;;;;5060194;28;20064;-82
2021/12/12 06:14:21;;;;;;;17.80;12.10;;;4.50;99.90;;;;;;5064048;28;20045;-81
2021/12/12 06:16:48;;;;;;;11.38;10.00;;;4.60;99.90;;;;;;5060526;28;20068;-82
2021/12/12 06:19:14;;;;;;;15.95;10.88;;;4.60;99.90;;;;;;5067078;28;20052;-81
2021/12/12 06:21:41;;;;;;;18.65;11.98;;;4.60;99.90;;;;;;5063471;28;20057;-82
2021/12/12 06:24:07;;;;;;;14.73;10.07;;;4.60;99.90;;;;;;5065561;28;20110;-81
2021/12/12 06:26:34;;;;;;;15.15;10.70;;;4.60;99.90;;;;;;5059862;28;20048;-81
2021/12/12 06:29:00;;;;;;;13.18;10.20;;;4.60;99.90;;;;;;5061357;28;20053;-82
2021/12/12 06:31:27;;;;;;;18.55;11.05;;;4.70;99.90;;;;;;5054708;28;20051;-81
2021/12/12 06:33:54;;;;;;;13.98;9.98;;;4.70;99.90;;;;;;5065199;28;20049;-81
2021/12/12 06:36:20;;;;;;;16.40;10.93;;;4.70;99.90;;;;;;5060326;28;20074;-81
2021/12/12 06:38:47;;;;;;;15.73;11.80;;;4.70;99.90;;;;;;5061707;28;20052;-80
2021/12/12 06:41:13;;;;;;;15.00;11.52;;;4.70;99.90;;;;;;5057490;28;20067;-80
2021/12/12 06:43:41;;;;;;;16.98;11.10;;;4.70;99.90;;;;;;5056329;28;20045;-80
2021/12/12 06:46:08;;;;;;;18.20;11.43;;;4.70;99.90;;;;;;5058876;28;20464;-80
2021/12/12 06:48:34;;;;;;;16.42;10.63;;;4.70;99.90;;;;;;5068220;28;20040;-81
2021/12/12 06:51:01;;;;;;;12.73;10.27;;;4.70;99.90;;;;;;5062489;28;20412;-81
2021/12/12 06:53:28;;;;;;;14.13;11.05;;;4.70;99.90;;;;;;5060717;28;20090;-80
2021/12/12 06:55:54;;;;;;;14.32;10.35;;;4.80;99.90;;;;;;5062452;28;20040;-81
2021/12/12 06:58:21;;;;;;;13.65;10.63;;;4.80;99.90;;;;;;5059198;28;20044;-80
2021/12/12 07:00:47;;;;;;;11.82;9.70;;;4.70;99.90;;;;;;5063445;28;20044;-80
2021/12/12 07:03:14;;;;;;;16.05;9.00;;;4.80;99.90;;;;;;5057714;28;20408;-80
2021/12/12 07:05:40;;;;;;;15.77;10.32;;;4.80;99.90;;;;;;5063937;28;20060;-80
2021/12/12 07:08:07;;;;;;;14.93;9.45;;;4.80;99.90;;;;;;5057047;28;20064;-80
2021/12/12 07:10:33;;;;;;;13.93;8.45;;;4.80;99.90;;;;;;5062169;28;20041;-80
2021/12/12 07:13:00;;;;;;;11.70;9.65;;;4.80;99.90;;;;;;5058262;28;20049;-80
2021/12/12 07:15:26;;;;;;;9.88;8.55;;;4.80;99.90;;;;;;5062541;28;20059;-80
2021/12/12 07:17:53;;;;;;;11.82;8.65;;;4.80;99.90;;;;;;5066134;28;20052;-80
2021/12/12 07:20:20;;;;;;;11.57;7.63;;;4.80;99.90;;;;;;5063849;28;20048;-80
2021/12/12 07:22:46;;;;;;;13.07;9.45;;;4.80;99.90;;;;;;5064885;28;20055;-81
2021/12/12 07:25:13;;;;;;;9.45;8.27;;;4.80;99.90;;;;;;5065115;28;20051;-80
2021/12/12 07:27:39;;;;;;;9.77;8.15;;;4.90;99.90;;;;;;5063682;28;20603;-81
2021/12/12 07:30:06;;;;;;;9.50;8.50;;;4.90;99.90;;;;;;5061711;28;20075;-80
2021/12/12 07:32:32;;;;;;;14.82;9.15;;;4.90;99.90;;;;;;5060401;28;20044;-81
2021/12/12 07:34:59;;;;;;;12.40;9.30;;;4.90;99.90;;;;;;5065559;28;20045;-81
2021/12/12 07:37:25;;;;;;;11.07;9.02;;;4.90;99.90;;;;;;5068207;28;20040;-81
2021/12/12 07:39:52;;;;;;;10.50;7.75;;;5.00;99.90;;;;;;5062541;28;20500;-81
2021/12/12 07:42:19;;;;;;;10.77;8.73;;;5.00;99.90;;;;;;5061577;28;20048;-81
2021/12/12 07:44:45;;;;;;;11.60;9.05;;;5.00;99.90;;;;;;5062007;28;20735;-81
2021/12/12 07:47:12;;;;;;;11.57;7.82;;;5.00;99.90;;;;;;5064509;28;20080;-83
2021/12/12 07:49:38;;;;;;;13.13;9.75;;;5.00;99.90;;;;;;5066830;28;20049;-82
2021/12/12 07:52:05;;;;;;;10.65;9.48;;;5.10;99.90;;;;;;5059016;28;20053;-82
2021/12/12 07:54:31;;;;;;;13.23;9.60;;;5.10;99.90;;;;;;5061965;28;20053;-81
2021/12/12 07:56:58;;;;;;;10.90;8.57;;;5.10;99.90;;;;;;5058606;28;20041;-82
2021/12/12 07:59:24;;;;;;;9.77;8.05;;;5.10;99.90;;;;;;5062889;28;20059;-82
2021/12/12 08:01:51;;;;;;;10.80;8.23;;;5.10;99.90;;;;;;5061031;28;20075;-82
2021/12/12 08:04:18;;;;;;;11.52;8.95;;;5.10;99.90;;;;;;5063033;28;20049;-81
2021/12/12 08:06:44;;;;;;;15.25;9.98;;;5.20;99.90;;;;;;5059122;28;20051;-82
2021/12/12 08:09:11;;;;;;;12.98;9.77;;;5.20;99.90;;;;;;5059346;28;20396;-82
2021/12/12 08:11:37;;;;;;;15.60;9.80;;;5.20;99.90;;;;;;5048380;28;20068;-81
2021/12/12 08:14:04;;;;;;;10.80;8.88;;;5.20;99.90;;;;;;5061168;28;20044;-82
2021/12/12 08:16:30;;;;;;;12.38;9.88;;;5.20;99.90;;;;;;5060406;28;20052;-82
2021/12/12 08:18:57;;;;;;;11.02;8.80;;;5.30;99.90;;;;;;5052576;28;20052;-82
2021/12/12 08:21:23;;;;;;;12.35;9.00;;;5.30;99.90;;;;;;5056738;28;20044;-82
2021/12/12 08:23:50;;;;;;;11.73;9.20;;;5.30;99.90;;;;;;5056969;28;20052;-81
2021/12/12 08:26:16;;;;;;;11.02;7.95;;;5.30;99.90;;;;;;5053658;28;20049;-83
2021/12/12 08:28:43;;;;;;;10.02;7.90;;;5.40;99.90;;;;;;5052455;28;20053;-83
2021/12/12 08:31:09;;;;;;;14.45;9.65;;;5.40;99.90;;;;;;5061404;28;20415;-82
2021/12/12 08:33:36;;;;;;;12.98;8.98;;;5.40;99.90;;;;;;5057329;28;20060;-81
2021/12/12 08:36:03;;;;;;;11.25;9.57;;;5.40;99.90;;;;;;5055836;28;20053;-83
2021/12/12 08:38:29;;;;;;;12.25;9.55;;;5.40;99.90;;;;;;5052037;28;20067;-82
2021/12/12 08:40:56;;;;;;;12.82;9.82;;;5.50;99.90;;;;;;5051477;28;20562;-82
2021/12/12 08:43:22;;;;;;;12.38;10.05;;;5.50;99.90;;;;;;5054553;28;20048;-83
2021/12/12 08:45:49;;;;;;;11.00;8.43;;;5.50;99.90;;;;;;5049098;28;20156;-83
2021/12/12 08:48:16;;;;;;;13.90;8.98;;;5.50;99.90;;;;;;5053373;28;20048;-82
2021/12/12 08:50:42;;;;;;;12.63;9.50;;;5.50;99.90;;;;;;5057130;28;20099;-82
2021/12/12 08:53:09;;;;;;;13.68;9.63;;;5.60;99.90;;;;;;5063027;28;20048;-82
2021/12/12 08:55:36;;;;;;;19.90;10.10;;;5.60;99.90;;;;;;5052291;28;20057;-82
2021/12/12 08:58:14;;;;;;;13.55;9.50;;;5.60;99.90;;;;;;5050187;28;20811;-82
2021/12/12 09:00:40;;;;;;;12.93;9.25;;;5.60;99.90;;;;;;5053284;28;20110;-82
2021/12/12 09:03:07;;;;;;;13.82;10.07;;;5.60;99.90;;;;;;5065231;28;20059;-82
2021/12/12 09:05:33;;;;;;;12.32;9.73;;;5.60;99.90;;;;;;5061231;28;20500;-82
2021/12/12 09:08:00;;;;;;;18.42;10.95;;;5.60;99.90;;;;;;5059148;28;20044;-82
2021/12/12 09:10:26;;;;;;;17.23;11.48;;;5.60;99.90;;;;;;5052408;28;20134;-83
2021/12/12 09:12:53;;;;;;;14.80;10.55;;;5.70;99.90;;;;;;5051133;28;20075;-82
2021/12/12 09:15:19;;;;;;;12.93;9.52;;;5.70;99.90;;;;;;5049762;28;20052;-83
2021/12/12 09:17:46;;;;;;;17.23;12.05;;;5.80;99.90;;;;;;5071317;28;20059;-82
2021/12/12 09:20:14;;;;;;;15.32;10.75;;;5.70;99.90;;;;;;5051458;28;20065;-82
2021/12/12 09:22:44;;;;;;;13.90;11.20;;;5.80;99.90;;;;;;5053894;28;20510;-80
2021/12/12 09:25:12;;;;;;;14.30;11.55;;;5.80;99.90;;;;;;5062564;28;21304;-81
2021/12/12 09:27:40;;;;;;;15.07;10.88;;;5.90;99.90;;;;;;5062606;28;20056;-80
2021/12/12 09:30:07;;;;;;;14.75;11.32;;;5.90;99.90;;;;;;5058891;28;20058;-81
2021/12/12 09:32:33;;;;;;;19.08;11.23;;;5.90;99.90;;;;;;5066812;28;20075;-82
2021/12/12 09:35:00;;;;;;;15.80;10.70;;;5.90;99.90;;;;;;5060567;28;20061;-82
2021/12/12 09:37:27;;;;;;;13.63;9.43;;;5.90;99.90;;;;;;5061813;28;20049;-82
2021/12/12 09:39:53;;;;;;;20.05;10.65;;;5.90;99.90;;;;;;5048478;28;20480;-82
2021/12/12 09:42:20;;;;;;;17.58;11.82;;;6.00;99.90;;;;;;5050766;28;20059;-82
2021/12/12 09:44:48;;;;;;;17.15;11.10;;;6.00;99.90;;;;;;5052279;28;20049;-82
2021/12/12 09:47:27;;;;;;;14.32;10.88;;;6.10;99.90;;;;;;5059226;28;20067;-82
2021/12/12 09:52:37;;;;;;;15.30;11.57;;;6.10;99.90;;;;;;5051794;28;20131;-82
2021/12/12 09:55:04;;;;;;;19.23;13.07;;;6.10;99.90;;;;;;5056716;28;20407;-82
2021/12/12 09:57:30;;;;;;;21.70;12.55;;;6.10;99.90;;;;;;5062341;28;20491;-82
2021/12/12 09:59:58;;;;;;;16.38;11.98;;;6.10;99.90;;;;;;5054805;28;20499;-82
2021/12/12 10:02:25;;;;;;;18.80;12.50;;;6.10;99.90;;;;;;5056984;28;20049;-81
2021/12/12 10:04:51;;;;;;;25.33;14.63;;;6.20;99.90;;;;;;5055533;28;20049;-81
2021/12/12 10:07:18;;;;;;;16.50;12.15;;;6.20;99.90;;;;;;5060159;28;20053;-81
2021/12/12 10:09:44;;;;;;;21.92;14.38;;;6.20;99.90;;;;;;5049316;28;20053;-81
2021/12/12 10:12:11;;;;;;;18.77;12.90;;;6.20;99.90;;;;;;5060374;28;20052;-81
2021/12/12 10:14:37;;;;;;;20.02;13.00;;;6.20;99.90;;;;;;5063128;28;20057;-81
2021/12/12 10:17:04;;;;;;;24.75;14.13;;;6.20;99.90;;;;;;5057613;28;20684;-81
2021/12/12 10:19:30;;;;;;;22.67;13.57;;;6.30;99.90;;;;;;5058033;28;20053;-82
2021/12/12 10:21:57;;;;;;;25.50;13.18;;;6.30;99.90;;;;;;5055577;28;20051;-82
2021/12/12 10:24:23;;;;;;;23.67;14.60;;;6.30;99.90;;;;;;5064229;28;20052;-82
2021/12/12 10:26:50;;;;;;;28.70;12.77;;;6.40;99.90;;;;;;5060281;28;20040;-81
2021/12/12 10:29:16;;;;;;;29.65;15.02;;;6.30;99.90;;;;;;5060519;28;20045;-79
2021/12/12 10:31:43;;;;;;;22.90;15.27;;;6.40;99.90;;;;;;5056040;28;20063;-80
2021/12/12 10:34:10;;;;;;;33.58;16.17;;;6.40;99.90;;;;;;5055310;28;20078;-79
2021/12/12 10:36:36;;;;;;;26.35;14.93;;;6.50;99.90;;;;;;5061625;28;20044;-80
2021/12/12 10:39:03;;;;;;;32.72;16.10;;;6.50;99.90;;;;;;5061633;28;20060;-79
2021/12/12 10:41:29;;;;;;;28.83;16.77;;;6.60;99.90;;;;;;5054271;28;20440;-80
2021/12/12 10:43:56;;;;;;;37.42;17.80;;;6.50;99.90;;;;;;5059556;28;20514;-79
2021/12/12 10:46:22;;;;;;;38.75;18.15;;;6.60;99.90;;;;;;5063775;28;20052;-80
2021/12/12 10:48:49;;;;;;;46.88;19.98;;;6.70;99.90;;;;;;5057234;28;20412;-80
2021/12/12 10:51:16;;;;;;;43.47;20.23;;;6.70;99.90;;;;;;5057407;28;20395;-80
2021/12/12 10:53:42;;;;;;;32.63;18.38;;;6.70;99.90;;;;;;5064689;28;20052;-80
2021/12/12 10:56:09;;;;;;;41.28;20.42;;;6.80;99.90;;;;;;5059592;28;20052;-80
2021/12/12 10:58:36;;;;;;;42.88;20.05;;;6.90;99.90;;;;;;5057095;28;20049;-80
2021/12/12 11:01:02;;;;;;;38.25;20.00;;;6.90;99.90;;;;;;5058461;28;20135;-80
2021/12/12 11:03:30;;;;;;;43.30;20.80;;;6.90;99.90;;;;;;5060218;28;20110;-82
2021/12/12 11:05:58;;;;;;;42.90;17.95;;;6.90;99.90;;;;;;5060326;28;20052;-79
2021/12/12 11:08:24;;;;;;;44.75;20.30;;;6.90;99.90;;;;;;5062315;28;20053;-80
2021/12/12 11:10:51;;;;;;;38.95;20.25;;;7.00;99.90;;;;;;5057111;28;20056;-79
2021/12/12 11:13:17;;;;;;;44.88;20.80;;;7.00;99.90;;;;;;5059401;28;20048;-80
2021/12/12 11:15:44;;;;;;;43.28;20.38;;;7.00;99.90;;;;;;5061436;28;20054;-80
2021/12/12 11:18:10;;;;;;;36.00;19.40;;;7.10;99.90;;;;;;5058992;28;20049;-79
2021/12/12 11:20:37;;;;;;;43.30;21.13;;;7.20;99.90;;;;;;5058754;28;20064;-80
2021/12/12 11:23:03;;;;;;;41.58;21.00;;;7.20;99.90;;;;;;5063697;28;20060;-82
2021/12/12 11:25:30;;;;;;;46.33;20.63;;;7.30;99.90;;;;;;5062755;28;20059;-80
2021/12/12 11:27:56;;;;;;;48.45;20.83;;;7.30;99.90;;;;;;5058618;28;20049;-80
2021/12/12 11:30:23;;;;;;;42.35;20.80;;;7.30;99.90;;;;;;5061947;28;20084;-79
2021/12/12 11:32:50;;;;;;;49.92;20.73;;;7.40;99.90;;;;;;5058715;28;20048;-79
2021/12/12 11:35:16;;;;;;;36.95;20.10;;;7.50;99.90;;;;;;5065628;28;20052;-80
2021/12/12 11:37:43;;;;;;;45.33;19.80;;;7.50;99.90;;;;;;5061074;28;20052;-80
2021/12/12 11:40:11;;;;;;;45.97;21.65;;;7.50;99.90;;;;;;5055743;28;20052;-80
2021/12/12 11:42:38;;;;;;;38.47;19.77;;;7.60;99.90;;;;;;5052211;28;20055;-80
2021/12/12 11:45:05;;;;;;;33.42;18.58;;;7.60;99.90;;;;;;5050196;28;20102;-80
2021/12/12 11:47:31;;;;;;;45.25;18.63;;;7.70;99.90;;;;;;5064572;28;20071;-80
2021/12/12 11:49:58;;;;;;;35.55;19.73;;;7.70;99.90;;;;;;5063413;28;20488;-80
2021/12/12 11:52:24;;;;;;;46.65;21.33;;;7.80;99.90;;;;;;5060284;28;20088;-80
2021/12/12 11:54:51;;;;;;;42.15;19.83;;;7.80;99.90;;;;;;5057230;28;20393;-80
2021/12/12 11:57:17;;;;;;;41.55;18.63;;;7.80;99.90;;;;;;5057698;28;20044;-80
2021/12/12 11:59:44;;;;;;;39.10;19.00;;;7.80;99.90;;;;;;5051577;28;20053;-81
2021/12/12 12:02:10;;;;;;;38.17;20.48;;;7.80;99.90;;;;;;5055442;28;20613;-80
2021/12/12 12:04:37;;;;;;;48.92;18.55;;;7.90;99.90;;;;;;5053817;28;20053;-80
2021/12/12 12:07:03;;;;;;;37.92;17.95;;;8.00;99.90;;;;;;5057208;28;20059;-79
2021/12/12 12:09:30;;;;;;;35.92;18.77;;;7.90;99.90;;;;;;5058859;28;20059;-80
2021/12/12 12:11:57;;;;;;;37.08;19.38;;;8.00;99.90;;;;;;5053668;28;20053;-81
2021/12/12 12:14:23;;;;;;;31.17;16.60;;;8.10;99.90;;;;;;5056968;28;20079;-80
2021/12/12 12:16:50;;;;;;;36.10;17.98;;;8.10;99.90;;;;;;5055962;28;20052;-79
2021/12/12 12:19:16;;;;;;;34.58;18.35;;;8.20;99.90;;;;;;5057464;28;20051;-80
2021/12/12 12:21:43;;;;;;;35.03;15.93;;;8.20;99.90;;;;;;5052553;28;20056;-80
2021/12/12 12:24:13;;;;;;;24.30;15.27;;;8.20;99.90;;;;;;5053809;28;20408;-80
2021/12/12 12:26:51;;;;;;;37.03;15.93;;;8.30;99.90;;;;;;5053529;28;20102;-80
2021/12/12 12:29:18;;;;;;;30.35;16.52;;;8.30;99.90;;;;;;5050472;28;20682;-80
2021/12/12 12:31:45;;;;;;;25.83;16.13;;;8.30;99.90;;;;;;5050473;28;20081;-81
2021/12/12 12:34:11;;;;;;;33.92;14.90;;;8.30;99.90;;;;;;5049697;28;20059;-81
2021/12/12 12:36:38;;;;;;;29.35;14.60;;;8.30;99.90;;;;;;5056049;28;20056;-80
2021/12/12 12:39:06;;;;;;;36.45;17.45;;;8.30;99.90;;;;;;5050961;28;20048;-81
2021/12/12 12:41:33;;;;;;;30.88;15.85;;;8.30;99.90;;;;;;5062833;28;20052;-81
2021/12/12 12:43:59;;;;;;;25.65;13.95;;;8.30;99.90;;;;;;5057477;28;20060;-80
2021/12/12 12:46:26;;;;;;;28.67;15.70;;;8.30;99.90;;;;;;5055744;28;20049;-81
2021/12/12 12:48:53;;;;;;;26.35;13.98;;;8.30;99.90;;;;;;5052905;28;20057;-80
2021/12/12 12:51:19;;;;;;;19.67;12.40;;;8.30;99.90;;;;;;5057914;28;20049;-81
2021/12/12 12:53:46;;;;;;;29.15;15.18;;;8.30;99.90;;;;;;5066240;28;20053;-81